sensor_id;sensor_type;location;lat;lon;timestamp;temperature;humidity
14192;DHT22;7177;48.572;7.838;2023-02-15T00:01:20;0.60;99.90
14192;DHT22;7177;48.572;7.838;2023-02-15T00:03:47;0.60;99.90
14192;DHT22;7177;48.572;7.838;2023-02-15T00:06:14;0.60;99.90
14192;DHT22;7177;48.572;7.838;2023-02-15T00:08:39;0.50;99.90
14192;DHT22;7177;48.572;7.838;2023-02-15T00:11:09;0.50;99.90
14192;DHT22;7177;48.572;7.838;2023-02-15T00:13:35;0.40;99.90
14192;DHT22;7177;48.572;7.838;2023-02-15T00:16:12;0.50;99.90
14192;DHT22;7177;48.572;7.838;2023-02-15T00:25:21;0.40;99.90
14192;DHT22;7177;48.572;7.838;2023-02-15T00:27:46;0.40;99.90
14192;DHT22;7177;48.572;7.838;2023-02-15T00:33:34;0.40;99.90
14192;DHT22;7177;48.572;7.838;2023-02-15T00:36:00;0.40;99.90
14192;DHT22;7177;48.572;7.838;2023-02-15T00:38:27;0.40;99.90
14192;DHT22;7177;48.572;7.838;2023-02-15T00:40:57;0.40;99.90
14192;DHT22;7177;48.572;7.838;2023-02-15T00:43:24;0.50;99.90
14192;DHT22;7177;48.572;7.838;2023-02-15T00:45:49;0.50;99.90
14192;DHT22;7177;48.572;7.838;2023-02-15T00:48:15;0.40;99.90
14192;DHT22;7177;48.572;7.838;2023-02-15T00:50:41;0.40;99.90
14192;DHT22;7177;48.572;7.838;2023-02-15T00:53:07;0.30;99.90
14192;DHT22;7177;48.572;7.838;2023-02-15T00:55:32;0.30;99.90
14192;DHT22;7177;48.572;7.838;2023-02-15T00:57:58;0.30;99.90
14192;DHT22;7177;48.572;7.838;2023-02-15T01:00:24;0.30;99.90
14192;DHT22;7177;48.572;7.838;2023-02-15T01:02:49;0.30;99.90
14192;DHT22;7177;48.572;7.838;2023-02-15T01:05:15;0.20;99.90
14192;DHT22;7177;48.572;7.838;2023-02-15T01:07:41;0.10;99.90
14192;DHT22;7177;48.572;7.838;2023-02-15T01:10:07;0.00;99.90
14192;DHT22;7177;48.572;7.838;2023-02-15T01:12:33;0.00;99.90
14192;DHT22;7177;48.572;7.838;2023-02-15T01:14:58;-0.10;99.90
14192;DHT22;7177;48.572;7.838;2023-02-15T01:17:24;-0.10;99.90
14192;DHT22;7177;48.572;7.838;2023-02-15T01:19:50;0.00;99.90
14192;DHT22;7177;48.572;7.838;2023-02-15T01:22:17;0.00;99.90
14192;DHT22;7177;48.572;7.838;2023-02-15T01:24:42;-0.10;99.90
14192;DHT22;7177;48.572;7.838;2023-02-15T01:27:08;-0.20;99.90
14192;DHT22;7177;48.572;7.838;2023-02-15T01:29:33;-0.10;99.90
14192;DHT22;7177;48.572;7.838;2023-02-15T01:31:59;-0.10;99.90
14192;DHT22;7177;48.572;7.838;2023-02-15T01:34:24;0.00;99.90
14192;DHT22;7177;48.572;7.838;2023-02-15T01:36:50;0.10;99.90
14192;DHT22;7177;48.572;7.838;2023-02-15T01:39:15;0.10;99.90
14192;DHT22;7177;48.572;7.838;2023-02-15T01:41:41;0.10;99.90
14192;DHT22;7177;48.572;7.838;2023-02-15T01:47:13;0.10;99.90
14192;DHT22;7177;48.572;7.838;2023-02-15T01:49:41;0.10;99.90
14192;DHT22;7177;48.572;7.838;2023-02-15T01:52:09;0.10;99.90
14192;DHT22;7177;48.572;7.838;2023-02-15T01:54:36;0.10;99.90
14192;DHT22;7177;48.572;7.838;2023-02-15T01:57:10;0.00;99.90
14192;DHT22;7177;48.572;7.838;2023-02-15T01:59:39;0.00;99.90
14192;DHT22;7177;48.572;7.838;2023-02-15T02:02:08;0.10;99.90
14192;DHT22;7177;48.572;7.838;2023-02-15T02:04:53;0.00;99.90
14192;DHT22;7177;48.572;7.838;2023-02-15T02:07:22;0.00;99.90
14192;DHT22;7177;48.572;7.838;2023-02-15T02:09:49;0.00;99.90
14192;DHT22;7177;48.572;7.838;2023-02-15T02:12:17;0.00;99.90
14192;DHT22;7177;48.572;7.838;2023-02-15T02:14:43;0.10;99.90
14192;DHT22;7177;48.572;7.838;2023-02-15T02:23:26;0.00;99.90
14192;DHT22;7177;48.572;7.838;2023-02-15T02:26:29;0.00;99.90
14192;DHT22;7177;48.572;7.838;2023-02-15T02:32:07;0.00;99.90
14192;DHT22;7177;48.572;7.838;2023-02-15T02:35:01;0.00;99.90
14192;DHT22;7177;48.572;7.838;2023-02-15T02:37:40;-0.10;99.90
14192;DHT22;7177;48.572;7.838;2023-02-15T02:42:49;-0.10;99.90
14192;DHT22;7177;48.572;7.838;2023-02-15T02:45:26;-0.10;99.90
14192;DHT22;7177;48.572;7.838;2023-02-15T02:47:56;-0.10;99.90
14192;DHT22;7177;48.572;7.838;2023-02-15T02:50:27;-0.10;99.90
14192;DHT22;7177;48.572;7.838;2023-02-15T02:52:55;-0.10;99.90
14192;DHT22;7177;48.572;7.838;2023-02-15T02:55:35;-0.20;99.90
14192;DHT22;7177;48.572;7.838;2023-02-15T02:58:14;-0.20;99.90
14192;DHT22;7177;48.572;7.838;2023-02-15T03:00:50;-0.20;99.90
14192;DHT22;7177;48.572;7.838;2023-02-15T03:05:51;-0.20;99.90
14192;DHT22;7177;48.572;7.838;2023-02-15T03:08:20;-0.20;99.90
14192;DHT22;7177;48.572;7.838;2023-02-15T03:10:48;-0.20;99.90
14192;DHT22;7177;48.572;7.838;2023-02-15T03:13:16;-0.10;99.90
14192;DHT22;7177;48.572;7.838;2023-02-15T03:15:44;-0.10;99.90
14192;DHT22;7177;48.572;7.838;2023-02-15T03:18:33;-0.10;99.90
14192;DHT22;7177;48.572;7.838;2023-02-15T03:21:01;-0.10;99.90
14192;DHT22;7177;48.572;7.838;2023-02-15T03:23:28;-0.10;99.90
14192;DHT22;7177;48.572;7.838;2023-02-15T03:26:00;0.00;99.90
14192;DHT22;7177;48.572;7.838;2023-02-15T03:28:35;-0.10;99.90
14192;DHT22;7177;48.572;7.838;2023-02-15T03:31:04;-0.10;99.90
14192;DHT22;7177;48.572;7.838;2023-02-15T03:33:31;0.00;99.90
14192;DHT22;7177;48.572;7.838;2023-02-15T03:36:11;0.00;99.90
14192;DHT22;7177;48.572;7.838;2023-02-15T03:38:51;0.10;99.90
14192;DHT22;7177;48.572;7.838;2023-02-15T03:41:19;0.10;99.90
14192;DHT22;7177;48.572;7.838;2023-02-15T03:51:40;0.20;99.90
14192;DHT22;7177;48.572;7.838;2023-02-15T03:54:12;0.20;99.90
14192;DHT22;7177;48.572;7.838;2023-02-15T03:56:41;0.10;99.90
14192;DHT22;7177;48.572;7.838;2023-02-15T03:59:07;0.10;99.90
14192;DHT22;7177;48.572;7.838;2023-02-15T04:02:11;0.10;99.90
14192;DHT22;7177;48.572;7.838;2023-02-15T04:04:43;0.20;99.90
14192;DHT22;7177;48.572;7.838;2023-02-15T04:07:10;0.10;99.90
14192;DHT22;7177;48.572;7.838;2023-02-15T04:09:35;0.10;99.90
14192;DHT22;7177;48.572;7.838;2023-02-15T04:12:19;0.00;99.90
14192;DHT22;7177;48.572;7.838;2023-02-15T04:14:45;-1.00;99.90
14192;DHT22;7177;48.572;7.838;2023-02-15T04:17:29;-0.10;99.90
14192;DHT22;7177;48.572;7.838;2023-02-15T04:19:55;-0.10;99.90
14192;DHT22;7177;48.572;7.838;2023-02-15T04:22:39;-0.10;99.90
14192;DHT22;7177;48.572;7.838;2023-02-15T04:25:23;0.00;99.90
14192;DHT22;7177;48.572;7.838;2023-02-15T04:27:51;0.00;99.90
14192;DHT22;7177;48.572;7.838;2023-02-15T04:30:19;0.10;99.90
14192;DHT22;7177;48.572;7.838;2023-02-15T04:32:45;0.10;99.90
14192;DHT22;7177;48.572;7.838;2023-02-15T04:35:11;0.10;99.90
14192;DHT22;7177;48.572;7.838;2023-02-15T04:37:38;0.10;99.90
14192;DHT22;7177;48.572;7.838;2023-02-15T04:40:05;0.10;99.90
14192;DHT22;7177;48.572;7.838;2023-02-15T04:42:31;0.00;99.90
14192;DHT22;7177;48.572;7.838;2023-02-15T04:44:56;0.00;99.90
14192;DHT22;7177;48.572;7.838;2023-02-15T04:47:22;0.00;99.90
14192;DHT22;7177;48.572;7.838;2023-02-15T04:49:48;-0.10;99.90
14192;DHT22;7177;48.572;7.838;2023-02-15T04:52:13;-0.10;99.90
14192;DHT22;7177;48.572;7.838;2023-02-15T04:54:39;-0.10;99.90
14192;DHT22;7177;48.572;7.838;2023-02-15T04:57:05;-0.20;99.90
14192;DHT22;7177;48.572;7.838;2023-02-15T04:59:30;-0.20;99.90
14192;DHT22;7177;48.572;7.838;2023-02-15T05:01:56;-0.20;99.90
14192;DHT22;7177;48.572;7.838;2023-02-15T05:04:22;-0.20;99.90
14192;DHT22;7177;48.572;7.838;2023-02-15T05:06:47;-0.20;99.90
14192;DHT22;7177;48.572;7.838;2023-02-15T05:09:13;-0.20;99.90
14192;DHT22;7177;48.572;7.838;2023-02-15T05:11:38;-0.30;99.90
14192;DHT22;7177;48.572;7.838;2023-02-15T05:14:04;-0.20;99.90
14192;DHT22;7177;48.572;7.838;2023-02-15T05:16:29;0.30;99.90
14192;DHT22;7177;48.572;7.838;2023-02-15T05:18:55;1.40;99.90
14192;DHT22;7177;48.572;7.838;2023-02-15T05:21:21;1.80;99.90
14192;DHT22;7177;48.572;7.838;2023-02-15T05:23:46;1.90;99.90
14192;DHT22;7177;48.572;7.838;2023-02-15T05:26:13;1.60;99.90
14192;DHT22;7177;48.572;7.838;2023-02-15T05:28:59;1.20;99.90
14192;DHT22;7177;48.572;7.838;2023-02-15T05:31:25;0.80;99.90
14192;DHT22;7177;48.572;7.838;2023-02-15T05:33:50;0.60;99.90
14192;DHT22;7177;48.572;7.838;2023-02-15T05:36:16;0.40;99.90
14192;DHT22;7177;48.572;7.838;2023-02-15T05:38:41;0.40;99.90
14192;DHT22;7177;48.572;7.838;2023-02-15T05:41:08;0.20;99.90
14192;DHT22;7177;48.572;7.838;2023-02-15T05:43:34;0.20;99.90
14192;DHT22;7177;48.572;7.838;2023-02-15T05:46:01;0.10;99.90
14192;DHT22;7177;48.572;7.838;2023-02-15T05:48:27;0.10;99.90
14192;DHT22;7177;48.572;7.838;2023-02-15T05:51:07;0.10;99.90
14192;DHT22;7177;48.572;7.838;2023-02-15T05:53:38;0.10;99.90
14192;DHT22;7177;48.572;7.838;2023-02-15T05:56:05;0.00;99.90
14192;DHT22;7177;48.572;7.838;2023-02-15T05:58:36;0.00;99.90
14192;DHT22;7177;48.572;7.838;2023-02-15T06:01:13;-0.10;99.90
14192;DHT22;7177;48.572;7.838;2023-02-15T06:03:39;-0.10;99.90
14192;DHT22;7177;48.572;7.838;2023-02-15T06:06:05;-0.20;99.90
14192;DHT22;7177;48.572;7.838;2023-02-15T06:08:32;-0.20;99.90
14192;DHT22;7177;48.572;7.838;2023-02-15T06:10:57;-0.20;99.90
14192;DHT22;7177;48.572;7.838;2023-02-15T06:13:23;-0.20;99.90
14192;DHT22;7177;48.572;7.838;2023-02-15T06:15:48;-0.10;99.90
14192;DHT22;7177;48.572;7.838;2023-02-15T06:18:14;-0.20;99.90
14192;DHT22;7177;48.572;7.838;2023-02-15T06:20:39;-0.20;99.90
14192;DHT22;7177;48.572;7.838;2023-02-15T06:23:05;-0.20;99.90
14192;DHT22;7177;48.572;7.838;2023-02-15T06:25:30;-0.30;99.90
14192;DHT22;7177;48.572;7.838;2023-02-15T06:27:56;-0.40;99.90
14192;DHT22;7177;48.572;7.838;2023-02-15T06:30:21;-0.30;99.90
14192;DHT22;7177;48.572;7.838;2023-02-15T06:32:47;-0.40;99.90
14192;DHT22;7177;48.572;7.838;2023-02-15T06:35:13;-0.30;99.90
14192;DHT22;7177;48.572;7.838;2023-02-15T06:37:39;-0.30;99.90
14192;DHT22;7177;48.572;7.838;2023-02-15T06:40:05;-0.40;99.90
14192;DHT22;7177;48.572;7.838;2023-02-15T06:42:30;-0.40;99.90
14192;DHT22;7177;48.572;7.838;2023-02-15T06:44:56;-0.50;99.90
14192;DHT22;7177;48.572;7.838;2023-02-15T06:47:21;-0.40;99.90
14192;DHT22;7177;48.572;7.838;2023-02-15T06:49:47;-0.40;99.90
14192;DHT22;7177;48.572;7.838;2023-02-15T06:52:12;-0.50;99.90
14192;DHT22;7177;48.572;7.838;2023-02-15T06:54:38;-0.50;99.90
14192;DHT22;7177;48.572;7.838;2023-02-15T06:57:03;-0.50;99.90
14192;DHT22;7177;48.572;7.838;2023-02-15T06:59:29;-0.50;99.90
14192;DHT22;7177;48.572;7.838;2023-02-15T07:01:54;-0.40;99.90
14192;DHT22;7177;48.572;7.838;2023-02-15T07:04:20;-0.40;99.90
14192;DHT22;7177;48.572;7.838;2023-02-15T07:06:45;-0.40;99.90
14192;DHT22;7177;48.572;7.838;2023-02-15T07:09:11;-0.40;99.90
14192;DHT22;7177;48.572;7.838;2023-02-15T07:11:38;-0.40;99.90
14192;DHT22;7177;48.572;7.838;2023-02-15T07:14:22;-0.40;99.90
14192;DHT22;7177;48.572;7.838;2023-02-15T07:16:47;-0.30;99.90
14192;DHT22;7177;48.572;7.838;2023-02-15T07:19:12;-0.30;99.90
14192;DHT22;7177;48.572;7.838;2023-02-15T07:21:38;-0.30;99.90
14192;DHT22;7177;48.572;7.838;2023-02-15T07:24:04;-0.20;99.90
14192;DHT22;7177;48.572;7.838;2023-02-15T07:26:31;-0.30;99.90
14192;DHT22;7177;48.572;7.838;2023-02-15T07:28:57;-0.20;99.90
14192;DHT22;7177;48.572;7.838;2023-02-15T07:31:22;0.80;99.90
14192;DHT22;7177;48.572;7.838;2023-02-15T07:33:48;0.70;99.90
14192;DHT22;7177;48.572;7.838;2023-02-15T07:36:14;0.30;99.90
14192;DHT22;7177;48.572;7.838;2023-02-15T07:38:41;0.20;99.90
14192;DHT22;7177;48.572;7.838;2023-02-15T07:41:11;0.00;99.90
14192;DHT22;7177;48.572;7.838;2023-02-15T07:43:39;-0.10;99.90
14192;DHT22;7177;48.572;7.838;2023-02-15T07:46:11;-0.10;99.90
14192;DHT22;7177;48.572;7.838;2023-02-15T07:48:38;-0.20;99.90
14192;DHT22;7177;48.572;7.838;2023-02-15T07:51:06;-0.20;99.90
14192;DHT22;7177;48.572;7.838;2023-02-15T07:53:32;-0.20;99.90
14192;DHT22;7177;48.572;7.838;2023-02-15T07:56:03;-0.20;99.90
14192;DHT22;7177;48.572;7.838;2023-02-15T07:58:29;-0.20;99.90
14192;DHT22;7177;48.572;7.838;2023-02-15T08:01:14;-0.20;99.90
14192;DHT22;7177;48.572;7.838;2023-02-15T08:03:40;-0.10;99.90
14192;DHT22;7177;48.572;7.838;2023-02-15T08:06:06;-0.20;99.90
14192;DHT22;7177;48.572;7.838;2023-02-15T08:08:34;-0.20;99.90
14192;DHT22;7177;48.572;7.838;2023-02-15T08:14:11;-0.30;99.90
14192;DHT22;7177;48.572;7.838;2023-02-15T08:16:51;-0.30;99.90
14192;DHT22;7177;48.572;7.838;2023-02-15T08:19:19;-0.30;99.90
14192;DHT22;7177;48.572;7.838;2023-02-15T08:21:54;-0.30;99.90
14192;DHT22;7177;48.572;7.838;2023-02-15T08:24:21;-0.20;99.90
14192;DHT22;7177;48.572;7.838;2023-02-15T08:26:47;-0.30;99.90
14192;DHT22;7177;48.572;7.838;2023-02-15T08:29:15;-0.30;99.90
14192;DHT22;7177;48.572;7.838;2023-02-15T08:31:41;-0.20;99.90
14192;DHT22;7177;48.572;7.838;2023-02-15T08:34:09;-0.20;99.90
14192;DHT22;7177;48.572;7.838;2023-02-15T08:36:36;-0.20;99.90
14192;DHT22;7177;48.572;7.838;2023-02-15T08:39:03;-0.20;99.90
14192;DHT22;7177;48.572;7.838;2023-02-15T08:41:31;-0.10;99.90
14192;DHT22;7177;48.572;7.838;2023-02-15T08:44:00;-0.10;99.90
14192;DHT22;7177;48.572;7.838;2023-02-15T08:46:28;-0.10;99.90
14192;DHT22;7177;48.572;7.838;2023-02-15T08:48:54;-0.10;99.90
14192;DHT22;7177;48.572;7.838;2023-02-15T08:51:22;-0.10;99.90
14192;DHT22;7177;48.572;7.838;2023-02-15T08:53:50;-0.10;99.90
14192;DHT22;7177;48.572;7.838;2023-02-15T08:56:17;-0.10;99.90
14192;DHT22;7177;48.572;7.838;2023-02-15T08:58:43;-0.10;99.90
14192;DHT22;7177;48.572;7.838;2023-02-15T09:01:14;0.00;99.90
14192;DHT22;7177;48.572;7.838;2023-02-15T09:03:43;0.00;99.90
14192;DHT22;7177;48.572;7.838;2023-02-15T09:06:09;0.20;99.90
14192;DHT22;7177;48.572;7.838;2023-02-15T09:08:34;0.10;99.90
14192;DHT22;7177;48.572;7.838;2023-02-15T09:11:08;0.00;99.90
14192;DHT22;7177;48.572;7.838;2023-02-15T09:13:34;0.10;99.90
14192;DHT22;7177;48.572;7.838;2023-02-15T09:16:07;0.10;99.90
14192;DHT22;7177;48.572;7.838;2023-02-15T09:18:36;0.00;99.90
14192;DHT22;7177;48.572;7.838;2023-02-15T09:23:31;0.10;99.90
14192;DHT22;7177;48.572;7.838;2023-02-15T09:26:02;0.10;99.90
14192;DHT22;7177;48.572;7.838;2023-02-15T09:28:28;0.10;99.90
14192;DHT22;7177;48.572;7.838;2023-02-15T09:30:54;0.10;99.90
14192;DHT22;7177;48.572;7.838;2023-02-15T09:33:20;0.10;99.90
14192;DHT22;7177;48.572;7.838;2023-02-15T09:35:47;0.10;99.90
14192;DHT22;7177;48.572;7.838;2023-02-15T09:38:12;0.00;99.90
14192;DHT22;7177;48.572;7.838;2023-02-15T09:40:53;0.20;99.90
14192;DHT22;7177;48.572;7.838;2023-02-15T09:43:42;0.10;99.90
14192;DHT22;7177;48.572;7.838;2023-02-15T09:46:34;0.20;99.90
14192;DHT22;7177;48.572;7.838;2023-02-15T09:49:34;0.40;99.90
14192;DHT22;7177;48.572;7.838;2023-02-15T09:52:26;0.40;99.90
14192;DHT22;7177;48.572;7.838;2023-02-15T09:55:02;0.50;99.90
14192;DHT22;7177;48.572;7.838;2023-02-15T10:00:12;0.40;99.90
14192;DHT22;7177;48.572;7.838;2023-02-15T10:02:46;0.50;99.90
14192;DHT22;7177;48.572;7.838;2023-02-15T10:10:57;0.80;99.90
14192;DHT22;7177;48.572;7.838;2023-02-15T10:16:54;1.00;99.90
14192;DHT22;7177;48.572;7.838;2023-02-15T10:19:40;0.90;99.90
14192;DHT22;7177;48.572;7.838;2023-02-15T10:27:45;0.80;99.90
14192;DHT22;7177;48.572;7.838;2023-02-15T10:30:47;0.90;99.90
14192;DHT22;7177;48.572;7.838;2023-02-15T10:33:16;0.90;99.90
14192;DHT22;7177;48.572;7.838;2023-02-15T10:38:39;1.00;99.90
14192;DHT22;7177;48.572;7.838;2023-02-15T10:41:40;1.10;99.90
14192;DHT22;7177;48.572;7.838;2023-02-15T10:52:59;1.30;99.90
14192;DHT22;7177;48.572;7.838;2023-02-15T11:06:44;1.30;99.90
14192;DHT22;7177;48.572;7.838;2023-02-15T11:09:14;1.40;99.90
14192;DHT22;7177;48.572;7.838;2023-02-15T11:11:44;1.50;99.90
14192;DHT22;7177;48.572;7.838;2023-02-15T11:17:33;1.50;99.90
14192;DHT22;7177;48.572;7.838;2023-02-15T11:20:24;1.50;99.90
14192;DHT22;7177;48.572;7.838;2023-02-15T11:22:53;1.40;99.90
14192;DHT22;7177;48.572;7.838;2023-02-15T11:25:28;1.60;99.90
14192;DHT22;7177;48.572;7.838;2023-02-15T11:27:55;1.50;99.90
14192;DHT22;7177;48.572;7.838;2023-02-15T11:30:23;1.60;99.90
14192;DHT22;7177;48.572;7.838;2023-02-15T11:32:55;1.50;99.90
14192;DHT22;7177;48.572;7.838;2023-02-15T11:35:49;1.50;99.90
14192;DHT22;7177;48.572;7.838;2023-02-15T11:38:17;1.60;99.90
14192;DHT22;7177;48.572;7.838;2023-02-15T11:41:17;1.60;99.90
14192;DHT22;7177;48.572;7.838;2023-02-15T11:43:46;1.60;99.90
14192;DHT22;7177;48.572;7.838;2023-02-15T11:46:16;1.60;99.90
14192;DHT22;7177;48.572;7.838;2023-02-15T11:48:42;1.60;99.90
14192;DHT22;7177;48.572;7.838;2023-02-15T11:51:21;1.80;99.90
14192;DHT22;7177;48.572;7.838;2023-02-15T11:53:48;1.90;99.90
14192;DHT22;7177;48.572;7.838;2023-02-15T11:56:20;2.00;99.90
14192;DHT22;7177;48.572;7.838;2023-02-15T11:58:56;2.10;99.90
14192;DHT22;7177;48.572;7.838;2023-02-15T12:04:03;2.30;99.90
14192;DHT22;7177;48.572;7.838;2023-02-15T12:06:34;2.30;99.90
14192;DHT22;7177;48.572;7.838;2023-02-15T12:11:45;2.20;99.90
14192;DHT22;7177;48.572;7.838;2023-02-15T12:14:12;2.20;99.90
14192;DHT22;7177;48.572;7.838;2023-02-15T12:16:45;2.30;99.90
14192;DHT22;7177;48.572;7.838;2023-02-15T12:19:36;2.20;99.90
14192;DHT22;7177;48.572;7.838;2023-02-15T12:22:04;2.10;99.90
14192;DHT22;7177;48.572;7.838;2023-02-15T12:24:32;2.20;99.90
14192;DHT22;7177;48.572;7.838;2023-02-15T12:29:46;2.30;99.90
14192;DHT22;7177;48.572;7.838;2023-02-15T12:32:27;2.40;99.90
14192;DHT22;7177;48.572;7.838;2023-02-15T12:35:09;2.50;99.90
14192;DHT22;7177;48.572;7.838;2023-02-15T12:37:38;2.50;99.90
14192;DHT22;7177;48.572;7.838;2023-02-15T12:40:23;2.60;99.90
14192;DHT22;7177;48.572;7.838;2023-02-15T12:42:51;2.60;99.90
14192;DHT22;7177;48.572;7.838;2023-02-15T12:45:34;2.60;99.90
14192;DHT22;7177;48.572;7.838;2023-02-15T12:48:20;2.40;99.90
14192;DHT22;7177;48.572;7.838;2023-02-15T12:50:48;2.50;99.90
14192;DHT22;7177;48.572;7.838;2023-02-15T12:53:18;2.60;99.90
14192;DHT22;7177;48.572;7.838;2023-02-15T12:58:18;2.80;99.90
14192;DHT22;7177;48.572;7.838;2023-02-15T13:00:45;2.90;99.90
14192;DHT22;7177;48.572;7.838;2023-02-15T13:03:19;3.10;99.90
14192;DHT22;7177;48.572;7.838;2023-02-15T13:05:50;3.30;99.90
14192;DHT22;7177;48.572;7.838;2023-02-15T13:08:20;3.50;99.90
14192;DHT22;7177;48.572;7.838;2023-02-15T13:11:04;3.60;99.90
14192;DHT22;7177;48.572;7.838;2023-02-15T13:13:32;3.60;99.90
14192;DHT22;7177;48.572;7.838;2023-02-15T13:16:05;3.60;99.90
14192;DHT22;7177;48.572;7.838;2023-02-15T13:18:38;3.60;99.90
14192;DHT22;7177;48.572;7.838;2023-02-15T13:21:18;3.70;99.90
14192;DHT22;7177;48.572;7.838;2023-02-15T13:23:48;3.80;99.90
14192;DHT22;7177;48.572;7.838;2023-02-15T13:26:19;3.80;99.90
14192;DHT22;7177;48.572;7.838;2023-02-15T13:28:48;3.90;99.90
14192;DHT22;7177;48.572;7.838;2023-02-15T13:31:19;3.80;99.90
14192;DHT22;7177;48.572;7.838;2023-02-15T13:33:51;3.70;99.90
14192;DHT22;7177;48.572;7.838;2023-02-15T13:36:24;3.60;99.90
14192;DHT22;7177;48.572;7.838;2023-02-15T13:39:20;3.60;99.90
14192;DHT22;7177;48.572;7.838;2023-02-15T13:41:51;3.60;99.90
14192;DHT22;7177;48.572;7.838;2023-02-15T13:47:43;3.90;99.90
14192;DHT22;7177;48.572;7.838;2023-02-15T13:50:34;4.00;99.90
14192;DHT22;7177;48.572;7.838;2023-02-15T13:55:37;4.10;99.90
14192;DHT22;7177;48.572;7.838;2023-02-15T14:12:33;4.10;99.90
14192;DHT22;7177;48.572;7.838;2023-02-15T14:15:09;4.10;99.90
14192;DHT22;7177;48.572;7.838;2023-02-15T14:18:30;4.10;99.90
14192;DHT22;7177;48.572;7.838;2023-02-15T14:26:30;4.10;99.90
14192;DHT22;7177;48.572;7.838;2023-02-15T14:29:14;4.10;99.90
14192;DHT22;7177;48.572;7.838;2023-02-15T14:31:44;3.90;99.90
14192;DHT22;7177;48.572;7.838;2023-02-15T14:34:22;3.80;99.90
14192;DHT22;7177;48.572;7.838;2023-02-15T14:36:51;3.80;99.90
14192;DHT22;7177;48.572;7.838;2023-02-15T14:39:36;3.80;99.90
14192;DHT22;7177;48.572;7.838;2023-02-15T14:42:29;3.80;99.90
14192;DHT22;7177;48.572;7.838;2023-02-15T14:45:21;3.90;99.90
14192;DHT22;7177;48.572;7.838;2023-02-15T14:48:08;3.90;99.90
14192;DHT22;7177;48.572;7.838;2023-02-15T14:50:46;3.80;99.90
14192;DHT22;7177;48.572;7.838;2023-02-15T14:58:56;3.70;99.90
14192;DHT22;7177;48.572;7.838;2023-02-15T15:01:33;3.70;99.90
14192;DHT22;7177;48.572;7.838;2023-02-15T15:04:05;3.60;99.90
14192;DHT22;7177;48.572;7.838;2023-02-15T15:06:35;3.60;99.90
14192;DHT22;7177;48.572;7.838;2023-02-15T15:09:20;3.50;99.90
14192;DHT22;7177;48.572;7.838;2023-02-15T15:11:49;3.50;99.90
14192;DHT22;7177;48.572;7.838;2023-02-15T15:14:37;3.60;99.90
14192;DHT22;7177;48.572;7.838;2023-02-15T15:17:04;3.60;99.90
14192;DHT22;7177;48.572;7.838;2023-02-15T15:22:18;3.60;99.90
14192;DHT22;7177;48.572;7.838;2023-02-15T15:38:38;3.30;99.90
14192;DHT22;7177;48.572;7.838;2023-02-15T15:41:42;3.20;99.90
14192;DHT22;7177;48.572;7.838;2023-02-15T15:47:32;3.20;99.90
14192;DHT22;7177;48.572;7.838;2023-02-15T15:50:00;3.10;99.90
14192;DHT22;7177;48.572;7.838;2023-02-15T15:52:26;3.00;99.90
14192;DHT22;7177;48.572;7.838;2023-02-15T15:54:57;2.90;99.90
14192;DHT22;7177;48.572;7.838;2023-02-15T15:57:30;2.90;99.90
14192;DHT22;7177;48.572;7.838;2023-02-15T15:59:58;2.80;99.90
14192;DHT22;7177;48.572;7.838;2023-02-15T16:02:26;2.80;99.90
14192;DHT22;7177;48.572;7.838;2023-02-15T16:04:52;2.80;99.90
14192;DHT22;7177;48.572;7.838;2023-02-15T16:12:25;2.80;99.90
14192;DHT22;7177;48.572;7.838;2023-02-15T16:14:52;2.80;99.90
14192;DHT22;7177;48.572;7.838;2023-02-15T16:17:25;2.90;99.90
14192;DHT22;7177;48.572;7.838;2023-02-15T16:19:54;2.90;99.90
14192;DHT22;7177;48.572;7.838;2023-02-15T16:22:25;2.70;99.90
14192;DHT22;7177;48.572;7.838;2023-02-15T16:27:38;2.70;99.90
14192;DHT22;7177;48.572;7.838;2023-02-15T16:32:47;2.70;99.90
14192;DHT22;7177;48.572;7.838;2023-02-15T16:35:17;2.70;99.90
14192;DHT22;7177;48.572;7.838;2023-02-15T16:37:44;2.60;99.90
14192;DHT22;7177;48.572;7.838;2023-02-15T16:40:43;2.60;99.90
14192;DHT22;7177;48.572;7.838;2023-02-15T16:43:16;2.50;99.90
14192;DHT22;7177;48.572;7.838;2023-02-15T16:45:42;2.50;99.90
14192;DHT22;7177;48.572;7.838;2023-02-15T16:48:14;2.40;99.90
14192;DHT22;7177;48.572;7.838;2023-02-15T16:50:47;2.40;99.90
14192;DHT22;7177;48.572;7.838;2023-02-15T16:53:31;2.40;99.90
14192;DHT22;7177;48.572;7.838;2023-02-15T16:55:59;2.30;99.90
14192;DHT22;7177;48.572;7.838;2023-02-15T16:58:35;2.20;99.90
14192;DHT22;7177;48.572;7.838;2023-02-15T17:01:02;2.10;99.90
14192;DHT22;7177;48.572;7.838;2023-02-15T17:03:28;2.10;99.90
14192;DHT22;7177;48.572;7.838;2023-02-15T17:05:59;2.20;99.90
14192;DHT22;7177;48.572;7.838;2023-02-15T17:08:34;2.10;99.90
14192;DHT22;7177;48.572;7.838;2023-02-15T17:11:14;2.00;99.90
14192;DHT22;7177;48.572;7.838;2023-02-15T17:16:31;1.90;99.90
14192;DHT22;7177;48.572;7.838;2023-02-15T17:19:00;1.90;99.90
14192;DHT22;7177;48.572;7.838;2023-02-15T17:21:33;2.00;99.90
14192;DHT22;7177;48.572;7.838;2023-02-15T17:24:00;1.90;99.90
14192;DHT22;7177;48.572;7.838;2023-02-15T17:26:34;2.00;99.90
14192;DHT22;7177;48.572;7.838;2023-02-15T17:29:26;1.80;99.90
14192;DHT22;7177;48.572;7.838;2023-02-15T17:31:55;1.80;99.90
14192;DHT22;7177;48.572;7.838;2023-02-15T17:37:51;1.80;99.90
14192;DHT22;7177;48.572;7.838;2023-02-15T17:40:43;1.70;99.90
14192;DHT22;7177;48.572;7.838;2023-02-15T17:43:08;1.70;99.90
14192;DHT22;7177;48.572;7.838;2023-02-15T17:45:38;1.60;99.90
14192;DHT22;7177;48.572;7.838;2023-02-15T17:48:05;1.60;99.90
14192;DHT22;7177;48.572;7.838;2023-02-15T17:50:31;1.50;99.90
14192;DHT22;7177;48.572;7.838;2023-02-15T17:52:58;1.70;99.90
14192;DHT22;7177;48.572;7.838;2023-02-15T17:55:24;1.50;99.90
14192;DHT22;7177;48.572;7.838;2023-02-15T17:58:12;1.60;99.90
14192;DHT22;7177;48.572;7.838;2023-02-15T18:00:41;1.50;99.90
14192;DHT22;7177;48.572;7.838;2023-02-15T18:03:33;1.50;99.90
14192;DHT22;7177;48.572;7.838;2023-02-15T18:06:22;1.50;99.90
14192;DHT22;7177;48.572;7.838;2023-02-15T18:09:10;1.50;99.90
14192;DHT22;7177;48.572;7.838;2023-02-15T18:11:55;1.50;99.90
14192;DHT22;7177;48.572;7.838;2023-02-15T18:14:20;1.60;99.90
14192;DHT22;7177;48.572;7.838;2023-02-15T18:16:46;1.60;99.90
14192;DHT22;7177;48.572;7.838;2023-02-15T18:19:22;1.60;99.90
14192;DHT22;7177;48.572;7.838;2023-02-15T18:21:49;1.70;99.90
14192;DHT22;7177;48.572;7.838;2023-02-15T18:24:21;1.70;99.90
14192;DHT22;7177;48.572;7.838;2023-02-15T18:26:49;1.70;99.90
14192;DHT22;7177;48.572;7.838;2023-02-15T18:29:15;1.70;99.90
14192;DHT22;7177;48.572;7.838;2023-02-15T18:31:41;1.70;99.90
14192;DHT22;7177;48.572;7.838;2023-02-15T18:36:52;1.70;99.90
14192;DHT22;7177;48.572;7.838;2023-02-15T18:39:37;1.70;99.90
14192;DHT22;7177;48.572;7.838;2023-02-15T18:42:05;1.70;99.90
14192;DHT22;7177;48.572;7.838;2023-02-15T18:44:31;1.70;99.90
14192;DHT22;7177;48.572;7.838;2023-02-15T18:46:57;1.80;99.90
14192;DHT22;7177;48.572;7.838;2023-02-15T18:49:22;1.80;99.90
14192;DHT22;7177;48.572;7.838;2023-02-15T18:51:48;1.80;99.90
14192;DHT22;7177;48.572;7.838;2023-02-15T18:54:22;1.80;99.90
14192;DHT22;7177;48.572;7.838;2023-02-15T18:56:57;1.90;99.90
14192;DHT22;7177;48.572;7.838;2023-02-15T18:59:25;1.90;99.90
14192;DHT22;7177;48.572;7.838;2023-02-15T19:01:51;1.90;99.90
14192;DHT22;7177;48.572;7.838;2023-02-15T19:04:17;1.90;99.90
14192;DHT22;7177;48.572;7.838;2023-02-15T19:06:45;1.90;99.90
14192;DHT22;7177;48.572;7.838;2023-02-15T19:09:22;1.90;99.90